Dodge County Airport


Codes: KUNU/
Name: Dodge County Airport
City: Juneau
Country: United States
Elevation: 934 ft.

Photos at Dodge County Airport


   Photos courtesy of SpottingLog. You can add your own sightings and photos by signing up for a free trial today.



No photos found.

Weather at Dodge County Airport


Time (UTC)DescriptionTempratureWindCloud coverageVisibilityPressureHumidity
17-Jun-2024 06:00Few Clouds22°C13 mph, SW15%10000m1010hPa86%
17-Jun-2024 09:00Clear Sky22°C11 mph, SW1%10000m1010hPa91%
17-Jun-2024 12:00Light Rain22°C9 mph, SW25%10000m1011hPa93%
17-Jun-2024 15:00Moderate Rain26°C13 mph, SW100%10000m1011hPa84%
17-Jun-2024 18:00Light Rain29°C13 mph, SW100%10000m1012hPa69%
17-Jun-2024 21:00Light Rain27°C11 mph, SW63%10000m1011hPa75%
18-Jun-2024 00:00Light Rain24°C9 mph, S81%10000m1011hPa88%
18-Jun-2024 03:00Overcast Clouds23°C11 mph, S100%10000m1011hPa90%
18-Jun-2024 06:00Overcast Clouds23°C13 mph, S100%10000m1012hPa87%
18-Jun-2024 09:00Broken Clouds21°C13 mph, S58%10000m1012hPa96%
18-Jun-2024 12:00Scattered Clouds22°C13 mph, S50%10000m1012hPa95%
18-Jun-2024 15:00Broken Clouds26°C20 mph, S56%10000m1013hPa82%
18-Jun-2024 18:00Broken Clouds28°C18 mph, S58%10000m1012hPa73%
18-Jun-2024 21:00Light Rain28°C20 mph, S35%10000m1013hPa77%
19-Jun-2024 00:00Few Clouds26°C20 mph, S17%10000m1013hPa80%
19-Jun-2024 03:00Clear Sky24°C18 mph, S5%10000m1014hPa85%
19-Jun-2024 06:00Clear Sky23°C16 mph, S1%10000m1016hPa83%
19-Jun-2024 09:00Light Rain21°C18 mph, SW5%10000m1017hPa85%
19-Jun-2024 12:00Broken Clouds21°C13 mph, SW52%10000m1019hPa90%
19-Jun-2024 15:00Light Rain25°C13 mph, W83%10000m1020hPa79%
19-Jun-2024 18:00Light Rain25°C9 mph, NW88%10000m1022hPa80%
19-Jun-2024 21:00Light Rain24°C7 mph, NW100%10000m1022hPa81%
20-Jun-2024 00:00Light Rain20°C7 mph, N100%10000m1024hPa91%
20-Jun-2024 03:00Moderate Rain19°C4 mph, N100%5925m1025hPa98%
20-Jun-2024 06:00Moderate Rain19°C0 mph, E100%10000m1026hPa98%
20-Jun-2024 09:00Light Rain19°C4 mph, E100%10000m1026hPa98%
20-Jun-2024 12:00Overcast Clouds19°C7 mph, E100%1188m1027hPa99%
20-Jun-2024 15:00Overcast Clouds19°C9 mph, E100%10000m1028hPa95%
20-Jun-2024 18:00Overcast Clouds23°C9 mph, E99%10000m1026hPa81%
20-Jun-2024 21:00Overcast Clouds25°C7 mph, SE97%10000m1025hPa79%
21-Jun-2024 00:00Overcast Clouds24°C7 mph, SE85%10000m1023hPa85%
21-Jun-2024 03:00Light Rain20°C7 mph, E100%10000m1024hPa98%
21-Jun-2024 06:00Light Rain19°C7 mph, SE100%10000m1024hPa97%
21-Jun-2024 09:00Light Rain18°C4 mph, SE95%10000m1023hPa96%
21-Jun-2024 12:00Broken Clouds20°C7 mph, S80%10000m1023hPa94%
21-Jun-2024 15:00Light Rain25°C9 mph, SW17%10000m1022hPa85%
21-Jun-2024 18:00Light Rain28°C9 mph, SW13%10000m1020hPa66%
21-Jun-2024 21:00Clear Sky29°C11 mph, SW2%10000m1018hPa66%
22-Jun-2024 00:00Light Rain26°C7 mph, SW11%10000m1018hPa83%
22-Jun-2024 03:00Light Rain22°C7 mph, SW8%10000m1017hPa92%